Time;durP1;ratioP1;P1;durP2;ratioP2;P2;SDS_P1;SDS_P2;PMS_P1;PMS_P2;Temp;Humidity;BMP_temperature;BMP_pressure;BME280_temperature;BME280_humidity;BME280_pressure;Samples;Min_cycle;Max_cycle;Signal;HPM_P1;HPM_P2
2023/11/01 00:01:02;;;;;;;2.43;1.37;;;10.60;93.10;;;12.37;63.18;97037.91;5031962;28;20497;-46
2023/11/01 00:03:31;;;;;;;2.63;1.37;;;10.70;93.50;;;12.41;63.43;97035.69;5032576;28;20040;-44
2023/11/01 00:05:59;;;;;;;2.22;1.20;;;10.70;94.00;;;12.44;63.13;97034.47;5032439;28;20045;-45
2023/11/01 00:08:26;;;;;;;3.58;1.60;;;10.70;93.70;;;12.48;63.26;97031.25;5032542;28;20038;-48
2023/11/01 00:10:54;;;;;;;2.42;1.20;;;10.80;94.00;;;12.53;62.92;97028.03;5032001;28;20056;-48
2023/11/01 00:13:22;;;;;;;3.03;1.48;;;10.80;93.90;;;12.54;63.08;97025.16;5032161;28;20424;-46
2023/11/01 00:15:49;;;;;;;4.22;1.77;;;10.80;94.00;;;12.59;63.15;97029.94;5032137;28;20224;-45
2023/11/01 00:18:17;;;;;;;4.30;2.20;;;10.90;94.00;;;12.59;63.11;97029.94;5031154;28;20042;-44
2023/11/01 00:20:45;;;;;;;1.80;1.50;;;10.90;93.70;;;12.63;63.14;97033.06;5030586;28;20042;-46
2023/11/01 00:23:12;;;;;;;2.15;1.00;;;10.90;93.70;;;12.67;63.08;97023.66;5031402;28;20049;-43
2023/11/01 00:25:40;;;;;;;1.67;1.00;;;11.00;93.00;;;12.70;63.12;97020.59;5032199;28;20420;-47
2023/11/01 00:28:08;;;;;;;2.97;1.00;;;11.00;92.80;;;12.69;63.02;97026.94;5032001;28;20041;-46
2023/11/01 00:30:36;;;;;;;3.50;1.00;;;11.00;92.70;;;12.69;63.03;97024.28;5030244;28;20049;-44
2023/11/01 00:33:04;;;;;;;1.15;0.95;;;11.00;92.80;;;12.70;63.05;97026.78;5032032;28;20276;-48
2023/11/01 00:35:32;;;;;;;2.87;1.27;;;11.10;93.20;;;12.71;63.00;97022.25;5031010;28;20488;-43
2023/11/01 00:37:59;;;;;;;2.70;1.10;;;11.10;92.70;;;12.71;62.85;97023.06;5031835;28;20045;-48
2023/11/01 00:40:27;;;;;;;3.65;1.38;;;11.00;92.90;;;12.70;63.08;97021.44;5031618;28;20481;-42
2023/11/01 00:42:55;;;;;;;2.97;1.27;;;11.00;92.80;;;12.65;63.21;97021.16;5031919;28;20057;-42
2023/11/01 00:45:22;;;;;;;2.10;1.30;;;10.90;93.40;;;12.65;63.11;97018.50;5022660;28;20060;-45
2023/11/01 00:47:50;;;;;;;2.27;1.40;;;10.90;93.60;;;12.69;62.96;97018.94;5030640;28;20072;-47
2023/11/01 00:50:18;;;;;;;2.90;1.20;;;10.90;93.10;;;12.69;63.22;97017.09;5030355;28;20037;-46
2023/11/01 00:52:45;;;;;;;2.78;1.63;;;11.00;92.90;;;12.66;62.98;97014.81;5030304;28;20045;-46
2023/11/01 00:55:13;;;;;;;4.10;1.50;;;10.90;93.20;;;12.66;63.10;97006.81;5031715;28;20513;-43
2023/11/01 00:57:42;;;;;;;1.92;1.40;;;10.90;93.40;;;12.70;63.20;97007.25;5029978;28;20053;-45
2023/11/01 01:00:11;;;;;;;3.07;1.40;;;11.00;93.60;;;12.73;63.06;97004.19;5029716;28;20505;-44
2023/11/01 01:02:38;;;;;;;2.25;1.45;;;11.00;93.20;;;12.77;63.04;97005.47;5031537;28;20045;-44
2023/11/01 01:05:07;;;;;;;2.57;1.30;;;11.10;92.80;;;12.76;62.72;97004.63;5031495;28;20046;-44
2023/11/01 01:07:35;;;;;;;2.10;1.20;;;11.00;92.70;;;12.74;62.96;97001.34;5031419;28;20405;-41
2023/11/01 01:10:03;;;;;;;3.75;1.00;;;11.00;93.60;;;12.73;62.95;97002.34;5029910;28;20431;-44
2023/11/01 01:12:31;;;;;;;1.90;1.17;;;11.00;93.50;;;12.75;63.12;97000.31;5031196;28;20041;-43
2023/11/01 01:14:59;;;;;;;2.43;1.07;;;11.10;93.10;;;12.78;63.08;97009.78;5029993;28;20049;-44
2023/11/01 01:17:28;;;;;;;2.97;1.33;;;11.10;92.90;;;12.74;63.05;96993.31;5013961;28;20049;-44
2023/11/01 01:19:56;;;;;;;2.22;1.02;;;11.10;93.00;;;12.75;63.09;97002.16;5027929;28;20049;-45
2023/11/01 01:22:24;;;;;;;2.15;1.30;;;11.10;92.70;;;12.76;63.05;96999.28;5002996;28;20069;-42
2023/11/01 01:24:51;;;;;;;2.67;1.00;;;11.10;92.80;;;12.78;63.08;97007.94;5025430;28;20049;-42
2023/11/01 01:27:19;;;;;;;4.10;1.20;;;11.10;93.10;;;12.81;63.15;97001.38;5029734;28;20053;-44
2023/11/01 01:29:47;;;;;;;4.47;1.40;;;11.20;92.60;;;12.79;63.16;96998.94;5030068;28;20213;-45
2023/11/01 01:32:14;;;;;;;2.15;1.10;;;11.20;92.40;;;12.80;63.30;96984.53;5030477;28;20048;-43
2023/11/01 01:34:42;;;;;;;4.30;1.43;;;11.20;91.50;;;12.84;63.11;96982.31;5029564;28;20505;-44
2023/11/01 01:37:10;;;;;;;2.92;1.40;;;11.20;91.50;;;12.82;63.29;96986.22;5029555;28;20053;-43
2023/11/01 01:39:37;;;;;;;1.65;0.90;;;11.20;91.90;;;12.86;63.13;96985.63;5029972;28;20049;-42
2023/11/01 01:42:05;;;;;;;3.23;1.30;;;11.30;91.90;;;12.89;63.09;96974.56;5028797;28;20060;-45
2023/11/01 01:44:33;;;;;;;4.55;1.20;;;11.30;91.00;;;12.93;62.75;96973.16;5030965;28;20042;-45
2023/11/01 01:47:00;;;;;;;5.07;1.00;;;11.40;90.80;;;12.93;62.80;96974.97;5029293;28;20064;-45
2023/11/01 01:49:28;;;;;;;4.40;1.70;;;11.30;90.60;;;12.89;62.60;96966.56;5031002;28;20497;-42
2023/11/01 01:52:06;;;;;;;4.75;1.27;;;11.30;90.30;;;12.90;62.58;96970.03;5029311;28;20428;-41
2023/11/01 01:54:34;;;;;;;2.33;1.30;;;11.30;90.20;;;12.89;62.46;96965.69;5029440;28;20041;-43
2023/11/01 01:57:02;;;;;;;2.45;1.10;;;11.30;89.70;;;12.90;62.32;96970.03;5029338;28;20556;-42
2023/11/01 01:59:30;;;;;;;2.10;1.30;;;11.30;89.20;;;12.94;62.09;96965.97;5021599;28;20515;-44
2023/11/01 02:01:59;;;;;;;4.15;1.13;;;11.40;89.50;;;12.96;61.96;96972.75;5016645;28;20049;-44
2023/11/01 02:04:27;;;;;;;2.33;0.80;;;11.40;88.00;;;12.95;61.92;96968.44;5006309;28;20046;-41
2023/11/01 02:06:56;;;;;;;1.65;1.13;;;11.40;87.80;;;12.97;61.79;96969.06;5012976;28;20497;-41
2023/11/01 02:09:23;;;;;;;2.88;1.20;;;11.40;87.20;;;13.02;61.76;96965.00;5033717;28;20523;-43
2023/11/01 02:11:51;;;;;;;2.95;1.35;;;11.40;86.30;;;13.01;61.70;96956.16;5033122;28;20061;-43
2023/11/01 02:14:21;;;;;;;1.40;1.20;;;11.50;86.70;;;13.00;61.39;96949.16;5033077;28;20060;-42
2023/11/01 02:16:50;;;;;;;4.15;1.20;;;11.40;86.50;;;13.01;61.38;96945.47;5033440;28;20424;-46
2023/11/01 02:19:21;;;;;;;2.60;1.00;;;11.40;86.10;;;12.96;61.19;96950.56;5016912;28;20054;-45
2023/11/01 02:21:49;;;;;;;3.60;1.20;;;11.50;84.90;;;12.90;61.14;96954.81;5032153;28;20048;-46
2023/11/01 02:24:17;;;;;;;2.30;1.13;;;11.40;84.30;;;12.93;60.98;96950.94;5032963;28;20041;-47
2023/11/01 02:26:45;;;;;;;3.97;1.10;;;11.40;84.30;;;12.95;60.86;96943.56;5032838;28;20049;-45
2023/11/01 02:29:12;;;;;;;3.47;1.00;;;11.40;84.30;;;12.94;60.89;96942.72;5032937;28;20060;-43
2023/11/01 02:31:41;;;;;;;1.75;1.00;;;11.50;84.70;;;12.97;60.73;96939.69;5032748;28;20053;-43
2023/11/01 02:34:09;;;;;;;2.05;0.90;;;11.40;83.80;;;12.99;60.59;96943.00;5032515;28;20523;-43
2023/11/01 02:36:38;;;;;;;3.83;1.00;;;11.50;83.80;;;12.95;60.43;96936.38;5033136;28;20390;-46
2023/11/01 02:39:06;;;;;;;2.50;1.58;;;11.40;84.20;;;12.90;60.48;96946.00;5032899;28;20060;-42
2023/11/01 02:41:34;;;;;;;2.83;1.20;;;11.40;83.90;;;12.95;60.59;96935.53;5033877;28;20038;-45
2023/11/01 02:44:02;;;;;;;2.85;0.85;;;11.40;84.10;;;12.91;60.19;96927.09;5033619;28;20060;-44
2023/11/01 02:46:29;;;;;;;1.50;1.40;;;11.40;82.70;;;12.91;60.17;96924.44;5033866;28;20038;-44
2023/11/01 02:48:57;;;;;;;2.42;1.20;;;11.40;83.70;;;12.95;60.03;96920.34;5032714;28;20057;-43
2023/11/01 02:51:25;;;;;;;3.15;0.82;;;11.40;83.50;;;12.91;60.15;96918.25;5016178;28;20401;-44
2023/11/01 02:53:52;;;;;;;2.13;0.75;;;11.40;84.00;;;12.90;60.04;96919.28;5032346;28;20053;-43
2023/11/01 02:56:21;;;;;;;1.20;0.82;;;11.40;83.10;;;12.92;59.91;96910.03;5033828;28;20042;-47
2023/11/01 02:58:48;;;;;;;3.95;1.10;;;11.40;83.10;;;12.88;59.80;96915.97;5033928;28;20033;-44
2023/11/01 03:01:17;;;;;;;2.13;1.10;;;11.40;82.40;;;12.93;59.92;96914.38;5031878;28;20406;-42
2023/11/01 03:03:44;;;;;;;2.63;1.63;;;11.40;82.70;;;12.95;59.67;96911.50;5032481;28;20045;-44
2023/11/01 03:06:12;;;;;;;3.83;1.27;;;11.40;82.60;;;12.95;59.64;96919.50;5032385;28;20068;-42
2023/11/01 03:08:40;;;;;;;2.47;1.08;;;11.50;82.50;;;12.94;59.65;96910.69;5033645;28;20052;-44
2023/11/01 03:11:08;;;;;;;2.13;1.00;;;11.50;81.80;;;12.94;59.61;96923.22;5031314;28;20053;-44
2023/11/01 03:13:35;;;;;;;5.57;1.08;;;11.50;81.70;;;12.91;59.32;96916.44;5031410;28;20045;-45
2023/11/01 03:16:04;;;;;;;1.35;0.85;;;11.50;81.60;;;12.96;59.24;96913.97;5032295;28;20057;-44
2023/11/01 03:18:31;;;;;;;3.50;1.55;;;11.40;81.80;;;12.95;59.24;96914.16;5033871;28;20046;-44
2023/11/01 03:20:59;;;;;;;3.30;1.00;;;11.50;81.30;;;12.97;59.04;96915.63;5031635;28;20123;-42
2023/11/01 03:23:27;;;;;;;2.20;1.00;;;11.50;80.80;;;13.03;59.13;96914.03;5031140;28;20045;-46
2023/11/01 03:25:54;;;;;;;2.60;0.85;;;11.60;81.20;;;12.98;59.10;96911.94;5033211;28;20048;-43
2023/11/01 03:28:22;;;;;;;4.22;1.75;;;11.50;80.90;;;13.00;58.87;96907.22;5032024;28;20525;-42
2023/11/01 03:30:50;;;;;;;2.00;1.10;;;11.50;80.80;;;13.00;58.90;96899.22;5032980;28;20068;-44
2023/11/01 03:33:17;;;;;;;3.38;1.35;;;11.40;81.00;;;13.02;58.84;96915.06;5032169;28;20080;-45
2023/11/01 03:35:45;;;;;;;2.22;1.17;;;11.40;81.60;;;12.94;58.62;96913.34;5032196;28;20041;-45
2023/11/01 03:38:13;;;;;;;2.03;0.93;;;11.30;80.70;;;12.94;58.70;96909.84;5031398;28;20421;-44
2023/11/01 03:40:40;;;;;;;2.88;0.90;;;11.30;81.50;;;12.96;58.76;96910.47;5032760;28;20519;-42
2023/11/01 03:43:08;;;;;;;5.03;0.98;;;11.30;81.70;;;12.97;58.76;96904.97;5033035;28;20053;-46
2023/11/01 03:45:36;;;;;;;2.58;0.85;;;11.30;82.00;;;12.94;58.70;96912.53;5031681;28;20041;-44
2023/11/01 03:48:04;;;;;;;5.67;1.07;;;11.20;82.00;;;12.92;58.67;96907.38;5031686;28;20049;-41
2023/11/01 03:50:32;;;;;;;1.70;1.00;;;11.10;82.30;;;12.86;58.81;96910.81;5031265;28;20045;-42
2023/11/01 03:53:00;;;;;;;3.08;1.27;;;11.10;83.20;;;12.80;58.87;96892.91;5031416;28;20049;-43
2023/11/01 03:55:27;;;;;;;4.43;1.73;;;10.90;83.60;;;12.77;58.85;96894.09;5032409;28;20068;-45
2023/11/01 03:57:55;;;;;;;3.03;1.97;;;10.90;83.60;;;12.66;59.08;96886.63;5032699;28;20060;-45
2023/11/01 04:00:22;;;;;;;2.80;1.27;;;10.80;84.70;;;12.55;59.48;96887.16;5032378;28;20049;-44
2023/11/01 04:02:50;;;;;;;2.13;1.20;;;10.70;85.00;;;12.54;59.57;96877.47;5032908;28;20040;-44
2023/11/01 04:05:20;;;;;;;4.15;1.25;;;10.70;85.60;;;12.45;59.48;96876.78;5032752;28;20041;-45
2023/11/01 04:07:47;;;;;;;3.30;1.50;;;10.60;86.10;;;12.38;59.78;96881.25;5032683;28;20044;-46
2023/11/01 04:10:15;;;;;;;4.53;1.00;;;10.50;86.60;;;12.39;60.01;96877.56;5031267;28;20037;-43
2023/11/01 04:12:42;;;;;;;3.53;1.20;;;10.50;86.60;;;12.34;59.91;96872.78;5032255;28;20056;-42
2023/11/01 04:15:12;;;;;;;2.23;1.10;;;10.50;87.20;;;12.30;60.11;96871.53;5032372;28;20045;-46
2023/11/01 04:17:40;;;;;;;3.22;1.13;;;10.50;87.00;;;12.26;60.01;96870.25;5032268;28;20394;-42
2023/11/01 04:20:09;;;;;;;4.10;1.20;;;10.50;87.30;;;12.21;60.05;96868.16;5029846;28;20049;-45
2023/11/01 04:22:38;;;;;;;2.77;1.53;;;10.40;87.00;;;12.18;60.34;96865.88;5030916;28;20082;-44
2023/11/01 04:25:07;;;;;;;2.07;1.07;;;10.40;87.50;;;12.15;60.25;96870.75;5031196;28;20497;-43
2023/11/01 04:27:39;;;;;;;2.50;0.90;;;10.30;88.00;;;12.18;60.21;96873.06;5024159;28;20413;-42
2023/11/01 04:30:12;;;;;;;1.87;1.37;;;10.40;87.70;;;12.15;60.42;96870.75;5030723;28;20053;-45
2023/11/01 04:32:41;;;;;;;1.65;1.17;;;10.40;87.70;;;12.10;60.56;96871.34;5023694;28;20041;-47
2023/11/01 04:35:09;;;;;;;4.47;1.30;;;10.30;87.80;;;12.13;60.17;96867.44;5031662;28;20413;-44
2023/11/01 04:37:38;;;;;;;2.23;1.67;;;10.30;87.90;;;12.10;60.59;96862.50;5032143;28;20204;-43
2023/11/01 04:40:11;;;;;;;4.67;1.83;;;10.30;87.90;;;12.14;60.51;96861.09;5031854;28;20053;-44
2023/11/01 04:42:41;;;;;;;4.20;1.45;;;10.30;87.80;;;12.14;60.14;96856.59;5024549;28;20046;-48
2023/11/01 04:45:10;;;;;;;2.80;1.20;;;10.30;87.60;;;12.14;60.21;96853.94;5032291;28;20041;-43
2023/11/01 04:47:41;;;;;;;2.53;1.07;;;10.30;87.50;;;12.12;60.21;96847.94;5031997;28;20041;-47
2023/11/01 04:50:10;;;;;;;3.17;1.23;;;10.30;87.50;;;12.13;60.33;96841.59;5031609;28;20049;-42
2023/11/01 04:52:39;;;;;;;3.80;1.33;;;10.30;87.50;;;12.12;60.40;96842.63;5024257;28;20038;-44
2023/11/01 04:55:08;;;;;;;2.33;1.50;;;10.30;87.30;;;12.12;60.24;96839.13;5014149;28;20049;-45
2023/11/01 04:57:37;;;;;;;3.00;1.37;;;10.30;87.60;;;12.12;60.25;96839.13;5031690;28;20049;-44
2023/11/01 05:00:09;;;;;;;6.53;1.20;;;10.30;87.60;;;12.08;60.16;96830.69;5030171;28;20049;-43
2023/11/01 05:02:38;;;;;;;2.43;1.27;;;10.20;87.00;;;12.04;60.31;96833.91;5031290;28;20052;-42
2023/11/01 05:05:06;;;;;;;1.67;1.57;;;10.20;87.40;;;11.97;60.42;96837.34;5030421;28;20054;-43
2023/11/01 05:07:39;;;;;;;1.87;1.10;;;10.10;88.00;;;11.94;60.40;96836.88;5031441;28;20037;-43
2023/11/01 05:10:07;;;;;;;2.97;1.20;;;10.10;87.90;;;11.90;60.51;96831.09;5031116;28;20041;-42
2023/11/01 05:12:35;;;;;;;2.60;1.20;;;10.10;88.00;;;11.92;60.31;96836.25;5031448;28;20045;-42
2023/11/01 05:15:03;;;;;;;3.40;1.07;;;10.10;87.80;;;11.87;60.69;96836.78;5031202;28;20533;-43
2023/11/01 05:17:31;;;;;;;3.67;2.60;;;10.10;87.80;;;11.84;60.50;96829.16;5031117;28;20045;-42
2023/11/01 05:20:00;;;;;;;2.70;1.30;;;10.10;87.60;;;11.87;60.63;96822.63;5031090;28;20038;-43
2023/11/01 05:22:27;;;;;;;2.47;1.37;;;10.10;87.70;;;11.89;60.35;96826.78;5030396;28;20046;-43
2023/11/01 05:24:55;;;;;;;5.20;1.20;;;10.10;87.60;;;11.91;60.43;96829.28;5031077;28;20216;-42
2023/11/01 05:27:23;;;;;;;3.77;1.40;;;10.10;87.20;;;11.85;60.39;96822.00;5031064;28;20068;-48
2023/11/01 05:29:51;;;;;;;6.50;1.70;;;10.00;87.30;;;11.82;60.38;96820.53;5031059;28;20131;-45
2023/11/01 05:32:19;;;;;;;3.70;1.93;;;10.00;87.70;;;11.83;60.57;96822.19;5030656;28;20046;-45
2023/11/01 05:34:48;;;;;;;4.33;1.43;;;10.10;87.00;;;11.83;60.62;96823.00;5030403;28;20041;-42
2023/11/01 05:37:15;;;;;;;2.00;1.27;;;10.10;87.20;;;11.84;60.47;96823.81;5030832;28;20519;-43
2023/11/01 05:39:43;;;;;;;3.07;1.00;;;10.20;86.00;;;11.88;60.37;96829.59;5030954;28;20049;-46
2023/11/01 05:42:11;;;;;;;1.97;1.10;;;10.20;85.70;;;11.86;60.31;96818.31;5030704;28;20520;-42
2023/11/01 05:44:40;;;;;;;2.97;1.10;;;10.20;86.10;;;11.80;60.35;96826.03;5030921;28;20042;-44
2023/11/01 05:47:08;;;;;;;1.57;1.27;;;10.20;85.80;;;11.86;60.47;96815.63;5029716;28;20045;-42
2023/11/01 05:49:36;;;;;;;2.33;1.10;;;10.20;85.70;;;11.86;60.08;96819.13;5030746;28;20058;-45
2023/11/01 05:52:04;;;;;;;2.67;1.00;;;10.20;85.40;;;11.83;60.25;96816.84;5030695;28;20037;-43
2023/11/01 05:54:31;;;;;;;2.43;1.20;;;10.10;85.50;;;11.79;60.25;96812.91;5030786;28;20497;-44
2023/11/01 05:57:01;;;;;;;1.10;1.00;;;10.10;85.80;;;11.81;60.29;96816.22;5031238;28;20513;-45
2023/11/01 05:59:29;;;;;;;2.92;1.95;;;10.10;85.40;;;11.81;60.32;96822.38;5030258;28;20068;-45
2023/11/01 06:01:57;;;;;;;2.23;1.20;;;10.20;85.70;;;11.80;60.26;96817.22;5030437;28;20076;-44
2023/11/01 06:04:24;;;;;;;3.83;1.40;;;10.20;85.00;;;11.76;60.41;96815.94;5030760;28;20049;-44
2023/11/01 06:06:52;;;;;;;2.50;1.10;;;10.20;85.40;;;11.74;60.09;96817.97;5030827;28;20505;-48
2023/11/01 06:09:19;;;;;;;4.00;2.17;;;10.10;84.80;;;11.74;60.34;96816.13;5031003;28;20049;-46
2023/11/01 06:11:47;;;;;;;2.67;1.70;;;10.20;85.50;;;11.76;60.01;96810.63;5030351;28;20052;-47
2023/11/01 06:14:15;;;;;;;3.37;1.60;;;10.20;84.60;;;11.71;60.31;96811.19;5030601;28;20046;-44
2023/11/01 06:16:43;;;;;;;2.27;1.33;;;10.00;85.20;;;11.70;59.95;96808.72;5030685;28;20496;-42
2023/11/01 06:19:11;;;;;;;3.23;1.30;;;10.00;85.20;;;11.67;60.02;96809.91;5030634;28;20049;-44
2023/11/01 06:21:39;;;;;;;3.40;1.57;;;9.90;86.10;;;11.69;60.16;96804.38;5030133;28;20045;-44
2023/11/01 06:24:07;;;;;;;3.50;1.07;;;10.00;85.80;;;11.69;60.13;96810.56;5030685;28;20289;-42
2023/11/01 06:26:35;;;;;;;3.23;1.10;;;10.00;85.70;;;11.65;60.32;96809.28;5030556;28;20045;-42
2023/11/01 06:29:03;;;;;;;4.63;1.20;;;9.90;86.30;;;11.64;60.12;96812.94;5029224;28;20046;-43
2023/11/01 06:31:31;;;;;;;3.90;1.40;;;9.90;86.30;;;11.65;60.25;96811.09;5030254;28;20500;-42
2023/11/01 06:33:59;;;;;;;5.03;1.80;;;9.90;85.60;;;11.65;60.33;96817.28;5030450;28;20397;-42
2023/11/01 06:36:27;;;;;;;2.73;1.30;;;10.00;86.10;;;11.61;60.15;96813.31;5030397;28;20057;-46
2023/11/01 06:38:54;;;;;;;4.77;1.20;;;10.00;86.00;;;11.63;60.16;96811.28;5030379;28;20054;-44
2023/11/01 06:41:22;;;;;;;2.83;1.10;;;10.00;85.30;;;11.68;60.24;96813.41;5028444;28;20512;-42
2023/11/01 06:43:52;;;;;;;2.33;1.50;;;10.00;85.30;;;11.62;60.08;96812.31;5030599;28;20072;-42
2023/11/01 06:46:19;;;;;;;1.73;1.47;;;10.00;85.10;;;11.62;60.04;96817.66;5032129;28;20041;-42
2023/11/01 06:48:47;;;;;;;3.43;1.50;;;10.00;85.70;;;11.64;60.18;96812.94;5026082;28;20037;-43
2023/11/01 06:51:15;;;;;;;2.77;1.50;;;10.10;85.30;;;11.56;60.59;96818.41;5033798;28;20416;-43
2023/11/01 06:53:43;;;;;;;2.00;1.17;;;10.00;85.10;;;11.55;60.50;96827.41;5033913;28;20076;-42
2023/11/01 06:56:11;;;;;;;1.20;1.10;;;10.10;85.00;;;11.65;60.56;96827.94;5033636;28;20469;-44
2023/11/01 06:58:39;;;;;;;1.40;1.27;;;10.20;84.80;;;11.70;60.12;96816.72;5032592;28;20069;-44
2023/11/01 07:01:07;;;;;;;1.57;1.10;;;10.20;83.80;;;11.79;60.37;96819.06;5033528;28;20053;-45
2023/11/01 07:03:35;;;;;;;1.90;1.17;;;10.30;83.80;;;11.83;60.32;96819.53;5033560;28;20412;-46
2023/11/01 07:06:04;;;;;;;4.23;2.07;;;10.40;83.30;;;11.82;60.16;96820.53;5033829;28;20045;-44
2023/11/01 07:08:31;;;;;;;3.17;1.40;;;10.30;84.00;;;11.83;60.09;96815.00;5031755;28;20041;-42
2023/11/01 07:10:59;;;;;;;2.00;1.10;;;10.30;82.50;;;11.80;59.82;96811.88;5033461;28;20053;-44
2023/11/01 07:13:27;;;;;;;3.10;1.30;;;10.30;83.40;;;11.80;59.82;96802.03;5032030;28;20520;-42
2023/11/01 07:15:55;;;;;;;2.10;1.20;;;10.40;82.30;;;11.83;59.94;96800.84;5033430;28;20493;-46
2023/11/01 07:18:23;;;;;;;2.40;1.10;;;10.40;82.70;;;11.88;59.54;96808.28;5033477;28;20041;-42
2023/11/01 07:20:51;;;;;;;1.30;1.20;;;10.40;82.30;;;11.88;59.81;96806.41;5030484;28;20052;-44
2023/11/01 07:23:19;;;;;;;2.97;1.00;;;10.40;83.10;;;11.96;59.47;96803.69;5032522;28;20049;-42
2023/11/01 07:25:46;;;;;;;2.63;1.27;;;10.50;82.40;;;12.03;59.46;96798.41;5033196;28;20033;-41
2023/11/01 07:28:15;;;;;;;5.07;2.20;;;10.50;82.10;;;12.10;59.38;96793.97;5030314;28;20042;-43
2023/11/01 07:30:42;;;;;;;1.40;1.10;;;10.60;82.10;;;12.15;59.64;96796.03;5031713;28;20537;-41
2023/11/01 07:33:11;;;;;;;2.10;1.00;;;10.70;82.30;;;12.20;59.46;96797.13;5031088;28;20057;-43
2023/11/01 07:35:40;;;;;;;2.37;1.17;;;10.70;81.80;;;12.24;59.07;96794.91;5031914;28;20054;-45
2023/11/01 07:38:07;;;;;;;2.03;1.70;;;10.70;81.70;;;12.22;59.32;96794.25;5032035;28;20046;-43
2023/11/01 07:40:35;;;;;;;1.73;1.17;;;10.80;81.50;;;12.25;59.09;96791.19;5032071;28;20528;-43
2023/11/01 07:43:03;;;;;;;1.90;1.08;;;10.80;81.40;;;12.29;59.10;96783.63;5031575;28;20056;-43
2023/11/01 07:45:31;;;;;;;1.50;1.08;;;10.90;81.60;;;12.30;59.02;96785.31;5031865;28;20042;-44
2023/11/01 07:47:59;;;;;;;2.40;1.50;;;10.90;81.30;;;12.34;59.30;96778.56;5031651;28;20385;-46
2023/11/01 07:50:27;;;;;;;1.67;1.10;;;11.00;81.10;;;12.38;59.00;96777.97;5031549;28;20046;-42
2023/11/01 07:52:54;;;;;;;2.03;1.17;;;11.00;80.50;;;12.44;59.12;96770.22;5031825;28;20037;-42
2023/11/01 07:55:22;;;;;;;2.77;1.33;;;11.00;80.40;;;12.49;58.84;96778.47;5032384;28;20377;-42
2023/11/01 07:57:50;;;;;;;1.33;1.10;;;11.10;80.40;;;12.53;58.54;96777.88;5030942;28;20075;-44
2023/11/01 08:00:17;;;;;;;2.70;1.23;;;11.10;79.70;;;12.58;58.78;96780.78;5031161;28;20416;-42
2023/11/01 08:02:45;;;;;;;1.43;1.20;;;11.10;80.10;;;12.64;58.60;96781.00;5031647;28;20098;-45
2023/11/01 08:05:13;;;;;;;3.67;1.23;;;11.20;79.60;;;12.67;58.50;96785.97;5031747;28;20060;-45
2023/11/01 08:07:41;;;;;;;3.47;1.50;;;11.30;78.70;;;12.69;58.06;96782.09;5024416;28;20037;-45
2023/11/01 08:10:09;;;;;;;1.35;1.20;;;11.30;78.80;;;12.64;57.94;96784.53;5025712;28;20420;-44
2023/11/01 08:12:37;;;;;;;2.37;1.07;;;11.30;77.30;;;12.71;58.13;96766.69;5014338;28;20053;-45
2023/11/01 08:15:06;;;;;;;3.53;1.42;;;11.30;77.30;;;12.72;57.92;96768.34;5031980;28;20053;-42
2023/11/01 08:17:33;;;;;;;2.03;1.23;;;11.40;77.20;;;12.70;57.55;96762.38;5031298;28;20061;-46
2023/11/01 08:20:01;;;;;;;1.88;1.00;;;11.40;77.40;;;12.77;57.67;96765.91;5029303;28;20053;-41
2023/11/01 08:22:29;;;;;;;2.25;1.10;;;11.50;77.40;;;12.86;57.66;96777.25;5031068;28;20524;-44
2023/11/01 08:24:57;;;;;;;4.47;1.90;;;11.60;77.00;;;12.91;57.71;96769.50;5031605;28;20045;-44
2023/11/01 08:27:25;;;;;;;1.98;0.90;;;11.60;77.30;;;13.00;57.59;96770.97;5029979;28;20045;-43
2023/11/01 08:29:54;;;;;;;3.20;1.00;;;11.70;77.00;;;12.95;57.19;96770.75;5031236;28;20045;-43
2023/11/01 08:32:21;;;;;;;2.60;1.02;;;11.70;76.40;;;13.00;57.15;96776.31;5030272;28;20041;-44
2023/11/01 08:34:49;;;;;;;1.52;0.95;;;11.70;76.10;;;13.08;57.20;96771.81;5031109;28;20053;-43
2023/11/01 08:37:17;;;;;;;1.70;0.98;;;11.80;76.30;;;13.11;57.20;96774.94;5030759;28;20441;-44
2023/11/01 08:39:45;;;;;;;2.25;1.25;;;11.80;75.70;;;13.11;56.90;96774.13;5030516;28;20052;-45
2023/11/01 08:42:12;;;;;;;2.17;1.02;;;11.80;75.50;;;13.17;56.93;96776.00;5029433;28;20045;-43
2023/11/01 08:44:40;;;;;;;2.60;1.23;;;11.80;74.30;;;13.16;56.57;96764.47;5029618;28;20053;-42
2023/11/01 08:47:08;;;;;;;2.03;1.40;;;11.80;74.80;;;13.20;56.65;96768.41;5030236;28;20033;-43
2023/11/01 08:49:37;;;;;;;1.13;1.00;;;11.90;74.90;;;13.21;56.25;96763.88;5030637;28;20045;-43
2023/11/01 08:52:05;;;;;;;1.23;1.13;;;11.90;74.30;;;13.28;56.35;96762.06;5030312;28;20041;-42
2023/11/01 08:54:33;;;;;;;1.80;0.90;;;12.00;74.60;;;13.38;56.38;96767.06;5030546;28;20041;-43
2023/11/01 08:57:01;;;;;;;1.52;0.95;;;12.10;74.30;;;13.39;55.92;96769.50;5030650;28;20485;-43
2023/11/01 08:59:29;;;;;;;1.50;0.95;;;12.10;73.60;;;13.45;55.95;96767.88;5030435;28;20053;-43
2023/11/01 09:01:56;;;;;;;2.75;1.30;;;12.20;73.80;;;13.52;56.08;96759.91;5030429;28;20060;-43
2023/11/01 09:04:36;;;;;;;2.33;1.02;;;12.30;73.70;;;13.59;55.97;96764.25;5030325;28;20409;-45
2023/11/01 09:07:04;;;;;;;1.52;1.08;;;12.40;73.50;;;13.61;55.69;96771.22;5030300;28;20029;-43
2023/11/01 09:09:32;;;;;;;1.27;0.90;;;12.40;72.70;;;13.66;55.71;96766.09;5029550;28;20044;-45
2023/11/01 09:12:00;;;;;;;1.48;0.80;;;12.50;72.80;;;13.75;55.64;96770.25;5021595;28;20044;-45
2023/11/01 09:14:27;;;;;;;3.80;1.00;;;12.60;72.30;;;13.78;55.42;96764.47;5029482;28;20421;-45
2023/11/01 09:16:55;;;;;;;2.00;1.10;;;12.70;72.10;;;13.82;55.14;96764.91;5030673;28;20409;-46
2023/11/01 09:19:23;;;;;;;3.50;1.60;;;12.70;71.70;;;13.83;54.80;96759.34;5029793;28;20060;-44
2023/11/01 09:21:51;;;;;;;4.00;1.23;;;12.70;69.60;;;13.90;54.70;96759.34;5030699;28;20061;-43
2023/11/01 09:24:18;;;;;;;3.05;0.80;;;12.70;70.40;;;13.97;54.73;96758.34;5029914;28;20045;-43
2023/11/01 09:26:46;;;;;;;2.22;1.10;;;12.80;71.00;;;14.04;54.72;96758.34;5031390;28;20041;-44
2023/11/01 09:29:15;;;;;;;2.53;0.70;;;12.90;71.00;;;14.00;54.13;96757.13;5030918;28;20048;-42
2023/11/01 09:31:42;;;;;;;1.58;0.75;;;12.90;69.40;;;14.08;54.13;96754.22;5030504;28;20053;-42
2023/11/01 09:34:10;;;;;;;3.45;1.17;;;13.00;69.70;;;14.12;54.07;96752.78;5030698;28;20044;-43
2023/11/01 09:36:41;;;;;;;3.10;1.10;;;13.00;70.00;;;14.14;54.20;96749.91;5030674;28;20045;-46
2023/11/01 09:39:08;;;;;;;2.55;0.90;;;13.00;69.90;;;14.25;54.19;96754.66;5029456;28;20408;-44
2023/11/01 09:42:03;;;;;;;0.60;0.60;;;13.10;69.60;;;14.30;54.02;96749.50;5029308;28;20052;-44
2023/11/01 09:44:31;;;;;;;2.55;1.27;;;13.20;68.20;;;14.38;53.98;96748.47;5026600;28;20056;-44
2023/11/01 09:46:59;;;;;;;2.45;1.00;;;13.20;69.50;;;14.40;53.83;96746.41;5030479;28;20421;-45
2023/11/01 09:49:30;;;;;;;1.50;0.80;;;13.30;70.20;;;14.45;53.81;96741.25;5030516;28;20038;-44
2023/11/01 09:52:03;;;;;;;1.90;1.50;;;13.30;69.60;;;14.52;53.58;96741.22;5030387;28;20042;-44
2023/11/01 09:54:31;;;;;;;2.65;0.90;;;13.30;69.30;;;14.53;53.50;96745.56;5029671;28;20049;-43
2023/11/01 09:57:01;;;;;;;1.88;1.75;;;13.40;69.10;;;14.57;53.48;96744.97;5017174;28;20053;-43
2023/11/01 09:59:29;;;;;;;2.40;1.45;;;13.40;68.10;;;14.57;53.15;96750.31;5026046;28;20057;-47
2023/11/01 10:01:57;;;;;;;2.45;1.25;;;13.40;68.20;;;14.65;53.08;96749.28;5022273;28;20057;-43
2023/11/01 10:04:25;;;;;;;2.45;1.05;;;13.40;68.50;;;14.70;53.19;96735.28;5026146;28;20045;-46
2023/11/01 10:06:53;;;;;;;2.33;1.15;;;13.50;68.70;;;14.76;53.39;96731.75;5026365;28;20046;-47
2023/11/01 10:09:20;;;;;;;3.38;1.20;;;13.60;69.10;;;14.84;53.48;96736.88;5026547;28;20224;-43
2023/11/01 10:11:48;;;;;;;2.22;1.20;;;13.70;69.10;;;14.91;53.17;96735.00;5026131;28;20072;-43
2023/11/01 10:14:32;;;;;;;2.05;1.10;;;13.80;68.90;;;14.92;52.92;96731.28;5024633;28;20413;-44
2023/11/01 10:17:00;;;;;;;1.38;1.27;;;13.80;66.10;;;14.90;52.48;96736.03;5025196;28;20057;-44
2023/11/01 10:19:27;;;;;;;3.30;1.00;;;13.80;66.90;;;14.81;52.32;96721.25;5026638;28;20045;-43
2023/11/01 10:21:56;;;;;;;1.65;1.00;;;13.70;67.50;;;14.85;52.22;96719.78;5027658;28;20052;-45
2023/11/01 10:24:25;;;;;;;0.98;0.82;;;13.70;66.70;;;14.94;52.56;96720.34;5028918;28;20037;-45